sensor_id;sensor_type;location;lat;lon;timestamp;P1;durP1;ratioP1;P2;durP2;ratioP2
69569;SDS011;56781;42.292;23.146;2022-08-01T00:00:20;16.80;;;9.67;;
69569;SDS011;56781;42.292;23.146;2022-08-01T00:02:47;13.45;;;9.13;;
69569;SDS011;56781;42.292;23.146;2022-08-01T00:05:14;13.88;;;9.82;;
69569;SDS011;56781;42.292;23.146;2022-08-01T00:07:42;13.85;;;9.60;;
69569;SDS011;56781;42.292;23.146;2022-08-01T00:10:10;14.18;;;9.18;;
69569;SDS011;56781;42.292;23.146;2022-08-01T00:12:40;13.60;;;9.20;;
69569;SDS011;56781;42.292;23.146;2022-08-01T00:15:08;14.93;;;9.75;;
69569;SDS011;56781;42.292;23.146;2022-08-01T00:17:37;17.38;;;10.15;;
69569;SDS011;56781;42.292;23.146;2022-08-01T00:20:06;13.48;;;8.65;;
69569;SDS011;56781;42.292;23.146;2022-08-01T00:22:35;14.07;;;9.35;;
69569;SDS011;56781;42.292;23.146;2022-08-01T00:25:03;18.50;;;9.37;;
69569;SDS011;56781;42.292;23.146;2022-08-01T00:27:32;12.63;;;8.80;;
69569;SDS011;56781;42.292;23.146;2022-08-01T00:30:03;13.38;;;8.50;;
69569;SDS011;56781;42.292;23.146;2022-08-01T00:32:38;13.02;;;8.80;;
69569;SDS011;56781;42.292;23.146;2022-08-01T00:35:05;15.30;;;8.85;;
69569;SDS011;56781;42.292;23.146;2022-08-01T00:37:32;14.30;;;9.50;;
69569;SDS011;56781;42.292;23.146;2022-08-01T00:39:59;15.52;;;9.73;;
69569;SDS011;56781;42.292;23.146;2022-08-01T00:42:26;14.55;;;9.60;;
69569;SDS011;56781;42.292;23.146;2022-08-01T00:44:53;15.05;;;9.77;;
69569;SDS011;56781;42.292;23.146;2022-08-01T00:47:20;14.30;;;9.50;;
69569;SDS011;56781;42.292;23.146;2022-08-01T00:49:47;14.10;;;9.60;;
69569;SDS011;56781;42.292;23.146;2022-08-01T00:52:14;14.32;;;9.57;;
69569;SDS011;56781;42.292;23.146;2022-08-01T00:54:41;12.98;;;8.90;;
69569;SDS011;56781;42.292;23.146;2022-08-01T00:57:09;16.27;;;9.20;;
69569;SDS011;56781;42.292;23.146;2022-08-01T00:59:40;13.93;;;9.30;;
69569;SDS011;56781;42.292;23.146;2022-08-01T01:02:07;14.53;;;9.60;;
69569;SDS011;56781;42.292;23.146;2022-08-01T01:04:41;14.13;;;9.05;;
69569;SDS011;56781;42.292;23.146;2022-08-01T01:15:26;12.27;;;8.30;;
69569;SDS011;56781;42.292;23.146;2022-08-01T01:17:58;12.75;;;8.90;;
69569;SDS011;56781;42.292;23.146;2022-08-01T01:20:37;16.23;;;9.05;;
69569;SDS011;56781;42.292;23.146;2022-08-01T01:26:27;12.63;;;8.60;;
69569;SDS011;56781;42.292;23.146;2022-08-01T01:29:13;14.10;;;8.93;;
69569;SDS011;56781;42.292;23.146;2022-08-01T01:34:56;14.77;;;8.93;;
69569;SDS011;56781;42.292;23.146;2022-08-01T01:37:25;13.60;;;8.93;;
69569;SDS011;56781;42.292;23.146;2022-08-01T01:39:56;12.82;;;8.82;;
69569;SDS011;56781;42.292;23.146;2022-08-01T01:42:24;12.90;;;8.53;;
69569;SDS011;56781;42.292;23.146;2022-08-01T01:44:53;14.63;;;8.98;;
69569;SDS011;56781;42.292;23.146;2022-08-01T01:47:21;11.93;;;8.27;;
69569;SDS011;56781;42.292;23.146;2022-08-01T01:49:49;12.95;;;8.35;;
69569;SDS011;56781;42.292;23.146;2022-08-01T01:52:19;14.70;;;9.15;;
69569;SDS011;56781;42.292;23.146;2022-08-01T01:54:48;12.90;;;9.07;;
69569;SDS011;56781;42.292;23.146;2022-08-01T01:57:18;14.15;;;9.02;;
69569;SDS011;56781;42.292;23.146;2022-08-01T01:59:45;13.73;;;8.90;;
69569;SDS011;56781;42.292;23.146;2022-08-01T02:02:14;14.05;;;8.50;;
69569;SDS011;56781;42.292;23.146;2022-08-01T02:04:43;14.70;;;9.32;;
69569;SDS011;56781;42.292;23.146;2022-08-01T02:07:20;12.63;;;8.70;;
69569;SDS011;56781;42.292;23.146;2022-08-01T02:09:50;14.02;;;9.20;;
69569;SDS011;56781;42.292;23.146;2022-08-01T02:12:19;13.55;;;8.65;;
69569;SDS011;56781;42.292;23.146;2022-08-01T02:14:48;13.75;;;8.52;;
69569;SDS011;56781;42.292;23.146;2022-08-01T02:17:19;15.85;;;8.93;;
69569;SDS011;56781;42.292;23.146;2022-08-01T02:19:47;14.87;;;9.23;;
69569;SDS011;56781;42.292;23.146;2022-08-01T02:22:25;14.30;;;8.38;;
69569;SDS011;56781;42.292;23.146;2022-08-01T02:25:01;14.73;;;8.50;;
69569;SDS011;56781;42.292;23.146;2022-08-01T02:27:43;13.38;;;8.82;;
69569;SDS011;56781;42.292;23.146;2022-08-01T02:30:14;14.93;;;8.80;;
69569;SDS011;56781;42.292;23.146;2022-08-01T02:32:49;13.70;;;8.73;;
69569;SDS011;56781;42.292;23.146;2022-08-01T02:35:28;13.48;;;8.60;;
69569;SDS011;56781;42.292;23.146;2022-08-01T02:37:57;13.07;;;8.25;;
69569;SDS011;56781;42.292;23.146;2022-08-01T02:40:26;13.30;;;7.78;;
69569;SDS011;56781;42.292;23.146;2022-08-01T02:42:56;11.55;;;7.47;;
69569;SDS011;56781;42.292;23.146;2022-08-01T02:45:25;12.70;;;7.93;;
69569;SDS011;56781;42.292;23.146;2022-08-01T02:47:55;14.27;;;8.43;;
69569;SDS011;56781;42.292;23.146;2022-08-01T02:50:25;13.48;;;8.48;;
69569;SDS011;56781;42.292;23.146;2022-08-01T02:52:56;12.32;;;7.55;;
69569;SDS011;56781;42.292;23.146;2022-08-01T02:55:24;10.70;;;7.75;;
69569;SDS011;56781;42.292;23.146;2022-08-01T02:57:53;10.87;;;7.07;;
69569;SDS011;56781;42.292;23.146;2022-08-01T03:00:26;11.98;;;7.35;;
69569;SDS011;56781;42.292;23.146;2022-08-01T03:02:55;10.93;;;7.10;;
69569;SDS011;56781;42.292;23.146;2022-08-01T03:05:24;11.35;;;7.65;;
69569;SDS011;56781;42.292;23.146;2022-08-01T03:07:53;12.23;;;8.30;;
69569;SDS011;56781;42.292;23.146;2022-08-01T03:10:29;11.33;;;7.50;;
69569;SDS011;56781;42.292;23.146;2022-08-01T03:12:58;15.70;;;7.72;;
69569;SDS011;56781;42.292;23.146;2022-08-01T03:15:27;12.75;;;8.13;;
69569;SDS011;56781;42.292;23.146;2022-08-01T03:17:57;11.23;;;7.35;;
69569;SDS011;56781;42.292;23.146;2022-08-01T03:20:27;13.48;;;7.85;;
69569;SDS011;56781;42.292;23.146;2022-08-01T03:22:56;13.67;;;7.43;;
69569;SDS011;56781;42.292;23.146;2022-08-01T03:25:26;13.48;;;7.82;;
69569;SDS011;56781;42.292;23.146;2022-08-01T03:27:56;14.45;;;8.25;;
69569;SDS011;56781;42.292;23.146;2022-08-01T03:30:27;12.68;;;7.70;;
69569;SDS011;56781;42.292;23.146;2022-08-01T03:32:56;13.23;;;7.68;;
69569;SDS011;56781;42.292;23.146;2022-08-01T03:35:26;11.73;;;7.67;;
69569;SDS011;56781;42.292;23.146;2022-08-01T03:37:57;13.07;;;7.47;;
69569;SDS011;56781;42.292;23.146;2022-08-01T03:40:53;14.90;;;7.80;;
69569;SDS011;56781;42.292;23.146;2022-08-01T03:43:29;13.70;;;8.38;;
69569;SDS011;56781;42.292;23.146;2022-08-01T03:46:01;18.90;;;8.65;;
69569;SDS011;56781;42.292;23.146;2022-08-01T03:48:35;13.33;;;7.00;;
69569;SDS011;56781;42.292;23.146;2022-08-01T03:51:07;12.02;;;7.25;;
69569;SDS011;56781;42.292;23.146;2022-08-01T03:53:35;12.73;;;7.07;;
69569;SDS011;56781;42.292;23.146;2022-08-01T03:56:07;11.80;;;7.70;;
69569;SDS011;56781;42.292;23.146;2022-08-01T03:58:36;12.13;;;7.43;;
69569;SDS011;56781;42.292;23.146;2022-08-01T04:01:06;12.33;;;7.37;;
69569;SDS011;56781;42.292;23.146;2022-08-01T04:03:41;12.50;;;7.22;;
69569;SDS011;56781;42.292;23.146;2022-08-01T04:06:10;12.60;;;8.27;;
69569;SDS011;56781;42.292;23.146;2022-08-01T04:08:37;11.38;;;7.18;;
69569;SDS011;56781;42.292;23.146;2022-08-01T04:11:05;10.30;;;6.35;;
69569;SDS011;56781;42.292;23.146;2022-08-01T04:13:34;10.23;;;6.63;;
69569;SDS011;56781;42.292;23.146;2022-08-01T04:16:03;9.60;;;6.72;;
69569;SDS011;56781;42.292;23.146;2022-08-01T04:18:31;9.68;;;6.38;;
69569;SDS011;56781;42.292;23.146;2022-08-01T04:20:58;9.63;;;5.93;;
69569;SDS011;56781;42.292;23.146;2022-08-01T04:23:26;11.30;;;6.60;;
69569;SDS011;56781;42.292;23.146;2022-08-01T04:25:57;10.20;;;6.20;;
69569;SDS011;56781;42.292;23.146;2022-08-01T04:28:28;9.02;;;6.05;;
69569;SDS011;56781;42.292;23.146;2022-08-01T04:30:58;10.63;;;6.65;;
69569;SDS011;56781;42.292;23.146;2022-08-01T04:33:28;9.82;;;6.22;;
69569;SDS011;56781;42.292;23.146;2022-08-01T04:35:56;9.55;;;6.30;;
69569;SDS011;56781;42.292;23.146;2022-08-01T04:38:30;9.70;;;6.20;;
69569;SDS011;56781;42.292;23.146;2022-08-01T04:40:59;8.77;;;5.68;;
69569;SDS011;56781;42.292;23.146;2022-08-01T04:43:34;10.00;;;5.18;;
69569;SDS011;56781;42.292;23.146;2022-08-01T04:46:03;9.45;;;5.43;;
69569;SDS011;56781;42.292;23.146;2022-08-01T04:48:32;8.32;;;5.15;;
69569;SDS011;56781;42.292;23.146;2022-08-01T04:51:02;8.73;;;5.23;;
69569;SDS011;56781;42.292;23.146;2022-08-01T04:53:30;8.65;;;5.00;;
69569;SDS011;56781;42.292;23.146;2022-08-01T04:55:58;10.00;;;5.13;;
69569;SDS011;56781;42.292;23.146;2022-08-01T04:58:25;9.25;;;5.07;;
69569;SDS011;56781;42.292;23.146;2022-08-01T05:00:52;9.52;;;5.68;;
69569;SDS011;56781;42.292;23.146;2022-08-01T05:03:19;8.97;;;5.73;;
69569;SDS011;56781;42.292;23.146;2022-08-01T05:05:46;11.50;;;5.97;;
69569;SDS011;56781;42.292;23.146;2022-08-01T05:08:13;8.50;;;6.10;;
69569;SDS011;56781;42.292;23.146;2022-08-01T05:10:40;9.75;;;5.93;;
69569;SDS011;56781;42.292;23.146;2022-08-01T05:13:07;10.02;;;5.50;;
69569;SDS011;56781;42.292;23.146;2022-08-01T05:15:35;8.40;;;5.63;;
69569;SDS011;56781;42.292;23.146;2022-08-01T05:18:05;9.38;;;5.38;;
69569;SDS011;56781;42.292;23.146;2022-08-01T05:20:34;9.48;;;5.75;;
69569;SDS011;56781;42.292;23.146;2022-08-01T05:23:02;8.68;;;5.10;;
69569;SDS011;56781;42.292;23.146;2022-08-01T05:25:29;8.38;;;5.65;;
69569;SDS011;56781;42.292;23.146;2022-08-01T05:28:17;8.30;;;4.73;;
69569;SDS011;56781;42.292;23.146;2022-08-01T05:30:44;7.55;;;5.05;;
69569;SDS011;56781;42.292;23.146;2022-08-01T05:33:11;7.35;;;4.88;;
69569;SDS011;56781;42.292;23.146;2022-08-01T05:35:39;7.47;;;4.93;;
69569;SDS011;56781;42.292;23.146;2022-08-01T05:38:14;7.35;;;4.60;;
69569;SDS011;56781;42.292;23.146;2022-08-01T05:40:43;7.20;;;4.60;;
69569;SDS011;56781;42.292;23.146;2022-08-01T05:43:10;10.82;;;5.15;;
69569;SDS011;56781;42.292;23.146;2022-08-01T05:45:37;10.20;;;4.88;;
69569;SDS011;56781;42.292;23.146;2022-08-01T05:48:04;9.45;;;5.43;;
69569;SDS011;56781;42.292;23.146;2022-08-01T05:50:32;7.13;;;4.55;;
69569;SDS011;56781;42.292;23.146;2022-08-01T05:53:00;9.87;;;4.93;;
69569;SDS011;56781;42.292;23.146;2022-08-01T05:55:26;6.90;;;4.50;;
69569;SDS011;56781;42.292;23.146;2022-08-01T05:57:53;8.13;;;4.70;;
69569;SDS011;56781;42.292;23.146;2022-08-01T06:00:20;8.40;;;5.32;;
69569;SDS011;56781;42.292;23.146;2022-08-01T06:02:47;7.43;;;4.93;;
69569;SDS011;56781;42.292;23.146;2022-08-01T06:05:15;7.97;;;4.50;;
69569;SDS011;56781;42.292;23.146;2022-08-01T06:07:42;7.03;;;4.30;;
69569;SDS011;56781;42.292;23.146;2022-08-01T06:10:09;6.20;;;4.30;;
69569;SDS011;56781;42.292;23.146;2022-08-01T06:12:37;7.82;;;4.35;;
69569;SDS011;56781;42.292;23.146;2022-08-01T06:15:04;7.30;;;4.38;;
69569;SDS011;56781;42.292;23.146;2022-08-01T06:17:32;6.80;;;4.43;;
69569;SDS011;56781;42.292;23.146;2022-08-01T06:20:00;6.82;;;4.82;;
69569;SDS011;56781;42.292;23.146;2022-08-01T06:22:31;6.72;;;4.38;;
69569;SDS011;56781;42.292;23.146;2022-08-01T06:24:58;6.10;;;4.20;;
69569;SDS011;56781;42.292;23.146;2022-08-01T06:27:27;8.27;;;4.38;;
69569;SDS011;56781;42.292;23.146;2022-08-01T06:29:54;7.17;;;4.43;;
69569;SDS011;56781;42.292;23.146;2022-08-01T06:32:21;7.57;;;4.68;;
69569;SDS011;56781;42.292;23.146;2022-08-01T06:34:53;6.10;;;4.15;;
69569;SDS011;56781;42.292;23.146;2022-08-01T06:37:21;6.80;;;4.55;;
69569;SDS011;56781;42.292;23.146;2022-08-01T06:39:49;5.97;;;4.20;;
69569;SDS011;56781;42.292;23.146;2022-08-01T06:42:16;6.93;;;3.70;;
69569;SDS011;56781;42.292;23.146;2022-08-01T06:44:44;6.30;;;3.78;;
69569;SDS011;56781;42.292;23.146;2022-08-01T06:47:11;6.00;;;4.25;;
69569;SDS011;56781;42.292;23.146;2022-08-01T06:49:38;5.00;;;3.65;;
69569;SDS011;56781;42.292;23.146;2022-08-01T06:52:05;5.47;;;3.80;;
69569;SDS011;56781;42.292;23.146;2022-08-01T06:54:32;5.87;;;3.50;;
69569;SDS011;56781;42.292;23.146;2022-08-01T06:57:04;5.57;;;3.25;;
69569;SDS011;56781;42.292;23.146;2022-08-01T06:59:32;6.07;;;3.40;;
69569;SDS011;56781;42.292;23.146;2022-08-01T07:01:59;5.65;;;3.35;;
69569;SDS011;56781;42.292;23.146;2022-08-01T07:04:27;4.55;;;3.17;;
69569;SDS011;56781;42.292;23.146;2022-08-01T07:06:54;6.00;;;3.13;;
69569;SDS011;56781;42.292;23.146;2022-08-01T07:09:21;5.50;;;3.00;;
69569;SDS011;56781;42.292;23.146;2022-08-01T07:11:48;4.57;;;2.90;;
69569;SDS011;56781;42.292;23.146;2022-08-01T07:14:16;4.28;;;2.55;;
69569;SDS011;56781;42.292;23.146;2022-08-01T07:16:43;5.25;;;2.50;;
69569;SDS011;56781;42.292;23.146;2022-08-01T07:19:13;3.73;;;2.30;;
69569;SDS011;56781;42.292;23.146;2022-08-01T07:21:40;4.20;;;2.60;;
69569;SDS011;56781;42.292;23.146;2022-08-01T07:24:11;4.45;;;2.30;;
69569;SDS011;56781;42.292;23.146;2022-08-01T07:26:47;4.18;;;2.50;;
69569;SDS011;56781;42.292;23.146;2022-08-01T07:29:25;4.45;;;2.60;;
69569;SDS011;56781;42.292;23.146;2022-08-01T07:31:53;4.57;;;2.30;;
69569;SDS011;56781;42.292;23.146;2022-08-01T07:34:23;3.83;;;2.50;;
69569;SDS011;56781;42.292;23.146;2022-08-01T07:36:51;4.43;;;2.58;;
69569;SDS011;56781;42.292;23.146;2022-08-01T07:39:19;5.18;;;2.92;;
69569;SDS011;56781;42.292;23.146;2022-08-01T07:41:47;4.40;;;2.63;;
69569;SDS011;56781;42.292;23.146;2022-08-01T07:44:33;4.07;;;2.67;;
69569;SDS011;56781;42.292;23.146;2022-08-01T07:47:00;3.65;;;2.53;;
69569;SDS011;56781;42.292;23.146;2022-08-01T07:49:27;3.83;;;2.45;;
69569;SDS011;56781;42.292;23.146;2022-08-01T07:51:54;4.60;;;2.58;;
69569;SDS011;56781;42.292;23.146;2022-08-01T07:54:32;6.13;;;2.65;;
69569;SDS011;56781;42.292;23.146;2022-08-01T07:57:00;4.17;;;2.60;;
69569;SDS011;56781;42.292;23.146;2022-08-01T07:59:28;4.97;;;2.63;;
69569;SDS011;56781;42.292;23.146;2022-08-01T08:01:56;3.88;;;2.58;;
69569;SDS011;56781;42.292;23.146;2022-08-01T08:04:23;5.30;;;2.75;;
69569;SDS011;56781;42.292;23.146;2022-08-01T08:06:50;6.78;;;2.65;;
69569;SDS011;56781;42.292;23.146;2022-08-01T08:09:19;4.33;;;2.67;;
69569;SDS011;56781;42.292;23.146;2022-08-01T08:11:47;4.00;;;2.70;;
69569;SDS011;56781;42.292;23.146;2022-08-01T08:14:14;3.95;;;2.90;;
69569;SDS011;56781;42.292;23.146;2022-08-01T08:16:45;4.30;;;2.90;;
69569;SDS011;56781;42.292;23.146;2022-08-01T08:19:12;4.68;;;2.45;;
69569;SDS011;56781;42.292;23.146;2022-08-01T08:21:39;4.90;;;2.80;;
69569;SDS011;56781;42.292;23.146;2022-08-01T08:24:07;4.50;;;2.92;;
69569;SDS011;56781;42.292;23.146;2022-08-01T08:26:55;5.40;;;2.78;;
69569;SDS011;56781;42.292;23.146;2022-08-01T08:29:24;4.07;;;2.67;;
69569;SDS011;56781;42.292;23.146;2022-08-01T08:31:53;4.90;;;2.65;;
69569;SDS011;56781;42.292;23.146;2022-08-01T08:34:24;4.07;;;2.70;;
69569;SDS011;56781;42.292;23.146;2022-08-01T08:36:53;4.18;;;2.70;;
69569;SDS011;56781;42.292;23.146;2022-08-01T08:39:22;5.78;;;2.80;;
69569;SDS011;56781;42.292;23.146;2022-08-01T08:41:49;4.53;;;2.60;;
69569;SDS011;56781;42.292;23.146;2022-08-01T08:44:17;3.95;;;2.70;;
69569;SDS011;56781;42.292;23.146;2022-08-01T08:46:48;5.23;;;2.57;;
69569;SDS011;56781;42.292;23.146;2022-08-01T08:49:19;3.90;;;2.83;;
69569;SDS011;56781;42.292;23.146;2022-08-01T08:52:02;4.30;;;2.65;;
69569;SDS011;56781;42.292;23.146;2022-08-01T08:54:34;4.55;;;2.70;;
69569;SDS011;56781;42.292;23.146;2022-08-01T08:57:04;4.13;;;2.65;;
69569;SDS011;56781;42.292;23.146;2022-08-01T08:59:31;4.63;;;2.83;;
69569;SDS011;56781;42.292;23.146;2022-08-01T09:01:58;4.50;;;2.63;;
69569;SDS011;56781;42.292;23.146;2022-08-01T09:04:26;4.55;;;3.15;;
69569;SDS011;56781;42.292;23.146;2022-08-01T09:06:53;5.90;;;2.88;;
69569;SDS011;56781;42.292;23.146;2022-08-01T09:09:21;6.30;;;3.05;;
69569;SDS011;56781;42.292;23.146;2022-08-01T09:11:49;4.83;;;2.90;;
69569;SDS011;56781;42.292;23.146;2022-08-01T09:14:22;6.05;;;3.20;;
69569;SDS011;56781;42.292;23.146;2022-08-01T09:17:05;4.95;;;2.80;;
69569;SDS011;56781;42.292;23.146;2022-08-01T09:19:38;4.88;;;2.60;;
69569;SDS011;56781;42.292;23.146;2022-08-01T09:22:08;4.30;;;2.80;;
69569;SDS011;56781;42.292;23.146;2022-08-01T09:24:40;4.77;;;2.90;;
69569;SDS011;56781;42.292;23.146;2022-08-01T09:27:18;3.83;;;2.80;;
69569;SDS011;56781;42.292;23.146;2022-08-01T09:29:47;5.35;;;2.80;;
69569;SDS011;56781;42.292;23.146;2022-08-01T09:32:27;4.10;;;2.88;;
69569;SDS011;56781;42.292;23.146;2022-08-01T09:35:22;5.05;;;3.08;;
69569;SDS011;56781;42.292;23.146;2022-08-01T09:38:18;4.87;;;2.80;;
69569;SDS011;56781;42.292;23.146;2022-08-01T09:40:51;4.53;;;2.80;;
69569;SDS011;56781;42.292;23.146;2022-08-01T09:43:24;4.40;;;3.05;;
69569;SDS011;56781;42.292;23.146;2022-08-01T09:45:53;4.80;;;2.80;;
69569;SDS011;56781;42.292;23.146;2022-08-01T09:48:23;5.00;;;2.95;;
69569;SDS011;56781;42.292;23.146;2022-08-01T09:50:54;4.13;;;3.03;;
69569;SDS011;56781;42.292;23.146;2022-08-01T09:53:42;4.65;;;2.60;;
69569;SDS011;56781;42.292;23.146;2022-08-01T09:56:16;17.00;;;3.58;;
69569;SDS011;56781;42.292;23.146;2022-08-01T09:58:54;31.67;;;4.28;;
69569;SDS011;56781;42.292;23.146;2022-08-01T10:01:27;4.50;;;3.00;;
69569;SDS011;56781;42.292;23.146;2022-08-01T10:04:06;5.07;;;3.13;;
69569;SDS011;56781;42.292;23.146;2022-08-01T10:06:45;4.60;;;2.80;;
69569;SDS011;56781;42.292;23.146;2022-08-01T10:09:19;5.80;;;2.97;;
69569;SDS011;56781;42.292;23.146;2022-08-01T10:12:06;4.30;;;2.75;;
69569;SDS011;56781;42.292;23.146;2022-08-01T10:14:41;4.95;;;3.00;;
69569;SDS011;56781;42.292;23.146;2022-08-01T10:17:12;5.20;;;3.00;;
69569;SDS011;56781;42.292;23.146;2022-08-01T10:19:44;4.70;;;2.72;;
69569;SDS011;56781;42.292;23.146;2022-08-01T10:22:13;4.88;;;2.85;;
69569;SDS011;56781;42.292;23.146;2022-08-01T10:24:44;3.95;;;3.20;;
69569;SDS011;56781;42.292;23.146;2022-08-01T10:27:14;7.55;;;2.85;;
69569;SDS011;56781;42.292;23.146;2022-08-01T10:30:02;4.20;;;2.83;;
69569;SDS011;56781;42.292;23.146;2022-08-01T10:32:44;4.45;;;2.75;;
69569;SDS011;56781;42.292;23.146;2022-08-01T10:35:15;3.92;;;2.67;;
69569;SDS011;56781;42.292;23.146;2022-08-01T10:38:06;4.30;;;2.50;;
69569;SDS011;56781;42.292;23.146;2022-08-01T10:40:38;4.43;;;2.60;;
69569;SDS011;56781;42.292;23.146;2022-08-01T10:43:09;4.10;;;2.50;;
69569;SDS011;56781;42.292;23.146;2022-08-01T10:45:47;3.70;;;2.58;;
69569;SDS011;56781;42.292;23.146;2022-08-01T10:48:20;4.40;;;2.90;;
69569;SDS011;56781;42.292;23.146;2022-08-01T10:50:55;5.40;;;2.70;;
69569;SDS011;56781;42.292;23.146;2022-08-01T10:53:26;4.00;;;2.88;;
69569;SDS011;56781;42.292;23.146;2022-08-01T10:56:08;4.57;;;2.70;;
69569;SDS011;56781;42.292;23.146;2022-08-01T10:58:42;3.70;;;2.40;;
69569;SDS011;56781;42.292;23.146;2022-08-01T11:01:26;3.90;;;2.58;;
69569;SDS011;56781;42.292;23.146;2022-08-01T11:04:01;6.70;;;2.85;;
69569;SDS011;56781;42.292;23.146;2022-08-01T11:09:02;3.97;;;2.73;;
69569;SDS011;56781;42.292;23.146;2022-08-01T11:11:32;4.10;;;2.75;;
69569;SDS011;56781;42.292;23.146;2022-08-01T11:14:19;5.50;;;2.40;;
69569;SDS011;56781;42.292;23.146;2022-08-01T11:16:51;3.80;;;2.17;;
69569;SDS011;56781;42.292;23.146;2022-08-01T11:19:18;4.57;;;2.63;;
69569;SDS011;56781;42.292;23.146;2022-08-01T11:32:49;3.90;;;2.67;;
69569;SDS011;56781;42.292;23.146;2022-08-01T11:35:37;4.40;;;2.70;;
69569;SDS011;56781;42.292;23.146;2022-08-01T11:38:25;3.80;;;2.80;;
69569;SDS011;56781;42.292;23.146;2022-08-01T11:41:14;6.10;;;2.65;;
69569;SDS011;56781;42.292;23.146;2022-08-01T11:44:04;4.82;;;2.55;;
69569;SDS011;56781;42.292;23.146;2022-08-01T11:46:46;6.47;;;2.40;;
69569;SDS011;56781;42.292;23.146;2022-08-01T11:52:08;3.42;;;2.30;;
69569;SDS011;56781;42.292;23.146;2022-08-01T11:54:56;4.13;;;2.60;;
69569;SDS011;56781;42.292;23.146;2022-08-01T11:57:35;4.30;;;2.50;;
69569;SDS011;56781;42.292;23.146;2022-08-01T12:00:09;3.70;;;2.42;;
69569;SDS011;56781;42.292;23.146;2022-08-01T12:02:40;3.80;;;2.40;;
69569;SDS011;56781;42.292;23.146;2022-08-01T12:05:11;3.85;;;2.33;;
69569;SDS011;56781;42.292;23.146;2022-08-01T12:07:41;5.90;;;2.50;;
69569;SDS011;56781;42.292;23.146;2022-08-01T12:10:10;3.83;;;2.60;;
69569;SDS011;56781;42.292;23.146;2022-08-01T12:12:42;4.40;;;2.80;;
69569;SDS011;56781;42.292;23.146;2022-08-01T12:15:15;3.80;;;2.60;;
69569;SDS011;56781;42.292;23.146;2022-08-01T12:17:43;4.30;;;2.70;;
69569;SDS011;56781;42.292;23.146;2022-08-01T12:20:24;4.10;;;2.63;;
69569;SDS011;56781;42.292;23.146;2022-08-01T12:22:56;3.72;;;2.50;;
69569;SDS011;56781;42.292;23.146;2022-08-01T12:25:24;4.28;;;2.70;;
69569;SDS011;56781;42.292;23.146;2022-08-01T12:27:52;4.20;;;2.97;;
69569;SDS011;56781;42.292;23.146;2022-08-01T12:30:23;5.43;;;2.88;;
69569;SDS011;56781;42.292;23.146;2022-08-01T12:32:52;5.95;;;3.65;;
69569;SDS011;56781;42.292;23.146;2022-08-01T12:35:22;5.65;;;3.25;;
69569;SDS011;56781;42.292;23.146;2022-08-01T12:37:55;5.15;;;3.00;;
69569;SDS011;56781;42.292;23.146;2022-08-01T12:40:34;3.90;;;2.73;;
69569;SDS011;56781;42.292;23.146;2022-08-01T12:43:08;4.00;;;2.63;;
69569;SDS011;56781;42.292;23.146;2022-08-01T12:45:52;4.93;;;3.00;;
69569;SDS011;56781;42.292;23.146;2022-08-01T12:48:22;4.20;;;2.90;;
69569;SDS011;56781;42.292;23.146;2022-08-01T12:50:50;4.47;;;2.95;;
69569;SDS011;56781;42.292;23.146;2022-08-01T12:53:19;4.30;;;2.87;;
69569;SDS011;56781;42.292;23.146;2022-08-01T12:55:53;5.28;;;3.10;;
69569;SDS011;56781;42.292;23.146;2022-08-01T12:58:32;4.00;;;3.10;;
69569;SDS011;56781;42.292;23.146;2022-08-01T13:01:06;4.25;;;2.97;;
69569;SDS011;56781;42.292;23.146;2022-08-01T13:03:35;4.30;;;3.20;;
69569;SDS011;56781;42.292;23.146;2022-08-01T13:06:11;4.50;;;2.73;;
69569;SDS011;56781;42.292;23.146;2022-08-01T13:08:42;4.30;;;3.00;;
69569;SDS011;56781;42.292;23.146;2022-08-01T13:11:10;4.25;;;3.20;;
69569;SDS011;56781;42.292;23.146;2022-08-01T13:13:42;4.10;;;3.17;;
69569;SDS011;56781;42.292;23.146;2022-08-01T13:16:17;4.82;;;3.55;;
69569;SDS011;56781;42.292;23.146;2022-08-01T13:19:05;4.47;;;3.27;;
69569;SDS011;56781;42.292;23.146;2022-08-01T13:21:33;4.57;;;3.50;;
69569;SDS011;56781;42.292;23.146;2022-08-01T13:24:23;4.60;;;3.35;;
69569;SDS011;56781;42.292;23.146;2022-08-01T13:29:30;5.30;;;3.55;;
69569;SDS011;56781;42.292;23.146;2022-08-01T13:32:17;8.10;;;4.07;;
69569;SDS011;56781;42.292;23.146;2022-08-01T13:35:04;5.30;;;4.07;;
69569;SDS011;56781;42.292;23.146;2022-08-01T13:37:34;6.50;;;4.82;;
69569;SDS011;56781;42.292;23.146;2022-08-01T13:40:04;5.10;;;4.22;;
69569;SDS011;56781;42.292;23.146;2022-08-01T13:42:32;4.85;;;4.15;;
69569;SDS011;56781;42.292;23.146;2022-08-01T13:44:59;5.77;;;4.50;;
69569;SDS011;56781;42.292;23.146;2022-08-01T13:47:29;5.47;;;4.50;;
69569;SDS011;56781;42.292;23.146;2022-08-01T13:49:58;6.25;;;4.55;;
69569;SDS011;56781;42.292;23.146;2022-08-01T13:52:29;5.40;;;4.18;;
69569;SDS011;56781;42.292;23.146;2022-08-01T13:54:57;6.00;;;4.72;;
69569;SDS011;56781;42.292;23.146;2022-08-01T13:57:25;4.83;;;4.07;;
69569;SDS011;56781;42.292;23.146;2022-08-01T14:00:05;5.68;;;4.10;;
69569;SDS011;56781;42.292;23.146;2022-08-01T14:02:34;4.70;;;3.90;;
69569;SDS011;56781;42.292;23.146;2022-08-01T14:05:01;7.20;;;4.50;;
69569;SDS011;56781;42.292;23.146;2022-08-01T14:07:29;7.15;;;4.50;;
69569;SDS011;56781;42.292;23.146;2022-08-01T14:09:56;4.60;;;3.73;;
69569;SDS011;56781;42.292;23.146;2022-08-01T14:12:43;4.88;;;4.20;;
69569;SDS011;56781;42.292;23.146;2022-08-01T14:15:11;5.95;;;4.22;;
69569;SDS011;56781;42.292;23.146;2022-08-01T14:17:38;5.18;;;4.20;;
69569;SDS011;56781;42.292;23.146;2022-08-01T14:20:13;4.57;;;3.47;;
69569;SDS011;56781;42.292;23.146;2022-08-01T14:22:40;4.20;;;3.20;;
69569;SDS011;56781;42.292;23.146;2022-08-01T14:25:07;5.35;;;3.47;;
69569;SDS011;56781;42.292;23.146;2022-08-01T14:27:35;4.88;;;3.30;;
69569;SDS011;56781;42.292;23.146;2022-08-01T14:30:03;5.22;;;3.30;;
69569;SDS011;56781;42.292;23.146;2022-08-01T14:32:31;4.85;;;3.13;;
69569;SDS011;56781;42.292;23.146;2022-08-01T14:35:02;4.40;;;3.00;;
69569;SDS011;56781;42.292;23.146;2022-08-01T14:37:31;6.85;;;3.33;;
69569;SDS011;56781;42.292;23.146;2022-08-01T14:40:04;4.65;;;3.33;;
69569;SDS011;56781;42.292;23.146;2022-08-01T14:42:36;6.80;;;3.20;;
69569;SDS011;56781;42.292;23.146;2022-08-01T14:45:05;4.07;;;3.10;;
69569;SDS011;56781;42.292;23.146;2022-08-01T14:47:35;4.30;;;2.80;;
69569;SDS011;56781;42.292;23.146;2022-08-01T14:50:04;5.45;;;2.72;;
69569;SDS011;56781;42.292;23.146;2022-08-01T14:52:33;6.25;;;3.00;;
69569;SDS011;56781;42.292;23.146;2022-08-01T14:55:01;4.32;;;2.80;;
69569;SDS011;56781;42.292;23.146;2022-08-01T14:57:28;4.45;;;3.20;;
69569;SDS011;56781;42.292;23.146;2022-08-01T14:59:55;4.00;;;3.00;;
69569;SDS011;56781;42.292;23.146;2022-08-01T15:02:22;4.10;;;3.00;;
69569;SDS011;56781;42.292;23.146;2022-08-01T15:04:50;4.50;;;3.00;;
69569;SDS011;56781;42.292;23.146;2022-08-01T15:07:17;4.15;;;2.80;;
69569;SDS011;56781;42.292;23.146;2022-08-01T15:09:45;4.07;;;3.10;;
69569;SDS011;56781;42.292;23.146;2022-08-01T15:12:12;4.43;;;2.83;;
69569;SDS011;56781;42.292;23.146;2022-08-01T15:14:39;3.97;;;2.88;;
69569;SDS011;56781;42.292;23.146;2022-08-01T15:19:49;4.60;;;2.95;;
69569;SDS011;56781;42.292;23.146;2022-08-01T15:22:22;5.65;;;2.97;;
69569;SDS011;56781;42.292;23.146;2022-08-01T15:24:51;3.60;;;2.50;;
69569;SDS011;56781;42.292;23.146;2022-08-01T15:27:23;4.05;;;2.70;;
69569;SDS011;56781;42.292;23.146;2022-08-01T15:29:51;5.05;;;2.60;;